LIRQ Airport Information

Runway Information
Runway 05 Length 5741 ft width 148 ft Elevation 123 ft Threshold 492 ft Heading 48
Runway 23 Length 5741 ft Width 148 ft Elevation 132 ft Threshold 2287 ft Heading 228
Airport Frequencies
Type APP Name APP Frequency 126.075 MHZ
Type ATIS Name ATIS Frequency 129.35 MHZ
Type TWR Name FIRENZE TW Frequency 118.3 MHZ
Airport Navaids
Type VOR-DME Name Peretola Frequency 112500 KHZ
Airport Weather Information & NOTAM
ADDS - METARS form results

(0205 UTC 12 August 2022)
Data provider http://aviationweather.gov/metar/data/
 
METAR text: LIRQ 120150Z 10003KT 060V150 CAVOK 20/10 Q1015
Conditions at: LIRQ (FIRENZE/PERETOLA, IT) observed 0150 UTC 12 August 2022
Temperature: 20.0°C (68°F)
Dewpoint: 10.0°C (50°F) [RH = 53%]
Pressure (altimeter): 29.97 inches Hg (1015.0 mb)
Winds: from the E (100 degrees) at 3 MPH (3 knots; 1.5 m/s)
Visibility: 6 or more miles (10+ km)
Ceiling: ceiling and visibility are OK
Clouds: unknown
Weather: no significant weather observed at this time

METAR text: LIRQ 120120Z 24003KT 220V280 CAVOK 21/10 Q1015
Conditions at: LIRQ (FIRENZE/PERETOLA, IT) observed 0120 UTC 12 August 2022
Temperature: 21.0°C (70°F)
Dewpoint: 10.0°C (50°F) [RH = 49%]
Pressure (altimeter): 29.97 inches Hg (1015.0 mb)
Winds: from the WSW (240 degrees) at 3 MPH (3 knots; 1.5 m/s)
Visibility: 6 or more miles (10+ km)
Ceiling: ceiling and visibility are OK
Clouds: unknown
Weather: no significant weather observed at this time

Forecast for: LIRQ (FIRENZE/PERETOLA, IT)
Text: TAF LIRQ 112300Z 1200/1224 VRB05KT 9999 FEW050
Forecast period: 0000 to 0800 UTC 12 August 2022
Forecast type: FROM: standard forecast or significant change
Winds: variable direction winds at 6 MPH (5 knots; 2.6 m/s)
Visibility: 6 or more miles (10+ km)
Ceiling: at least 12,000 feet AGL
Clouds: few clouds at 5000 feet AGL
Weather: no significant weather forecast for this period
Text: BECMG 1208/1210 04013KT
Forecast period: 0800 UTC 12 August 2022 to 0000 UTC 13 August 2022
Forecast type: BECOMING: Conditions expected to become as follows by 1000 UTC 12 August 2022
Winds: from the NE (40 degrees) at 15 MPH (13 knots; 6.7 m/s)
Visibility: 6 or more miles (10+ km)
Ceiling: at least 12,000 feet AGL
Clouds: few clouds at 5000 feet AGL
Weather: no significant weather forecast for this period
Text: PROB40
Forecast period: 1200 to 1600 UTC 12 August 2022
Forecast type: TEMPORARY: The following changes expected for less than half the time period
Visibility: missing
Ceiling: unknown
Clouds: missing
Weather: RA  (moderate rain)
Text: TEMPO 1212/1216 RA
Forecast period: 2200 UTC 12 August 2022 to 0000 UTC 13 August 2022
Forecast type: TEMPORARY: The following changes expected for less than half the time period
Visibility: 2.49 miles (4.01 km)
Ceiling: unknown
Clouds: missing
Weather: TSRA  (rain associated with thunderstorm(s))